Terminal Aerodrome Forecast
Issued by NWS

Home | Current Version | Previous Version | Text Only | Print | Product List | Glossary On
Versions: 1 2 3 4 5 6 7 8 9 10 11 12 13
000
FTUS42 TJSJ 250300 AAA
TAFJPS
TAF AMD
TJPS 250310Z 2503/2524 VRB05KT P6SM SCT030 BKN050
     FM251400 13010G15KT P6SM VCSH SCT030 BKN040
     FM252300 07010G20KT P6SM SCT025 SCT050
      AMD NOT SKED TIL 250300=

USA.gov is the U.S. government's official web portal to all federal, state and local government web resources and services.